sensor_id;sensor_type;location;lat;lon;timestamp;temperature;humidity
59505;DHT22;45321;53.200;5.814;2023-09-19T00:00:38;16.30;81.10
59505;DHT22;45321;53.200;5.814;2023-09-19T00:03:05;16.30;81.30
59505;DHT22;45321;53.200;5.814;2023-09-19T00:05:34;16.30;82.20
59505;DHT22;45321;53.200;5.814;2023-09-19T00:08:00;16.30;81.30
59505;DHT22;45321;53.200;5.814;2023-09-19T00:10:27;16.40;81.00
59505;DHT22;45321;53.200;5.814;2023-09-19T00:12:57;16.40;80.60
59505;DHT22;45321;53.200;5.814;2023-09-19T00:15:25;16.40;80.80
59505;DHT22;45321;53.200;5.814;2023-09-19T00:17:54;16.40;81.00
59505;DHT22;45321;53.200;5.814;2023-09-19T00:20:20;16.40;81.30
59505;DHT22;45321;53.200;5.814;2023-09-19T00:22:51;16.40;80.20
59505;DHT22;45321;53.200;5.814;2023-09-19T00:25:20;16.40;80.60
59505;DHT22;45321;53.200;5.814;2023-09-19T00:27:47;16.30;80.20
59505;DHT22;45321;53.200;5.814;2023-09-19T00:30:17;16.30;79.30
59505;DHT22;45321;53.200;5.814;2023-09-19T00:32:50;16.30;78.60
59505;DHT22;45321;53.200;5.814;2023-09-19T00:35:23;16.30;78.60
59505;DHT22;45321;53.200;5.814;2023-09-19T00:37:59;16.20;78.80
59505;DHT22;45321;53.200;5.814;2023-09-19T00:40:28;16.20;78.80
59505;DHT22;45321;53.200;5.814;2023-09-19T00:42:57;16.20;78.40
59505;DHT22;45321;53.200;5.814;2023-09-19T00:45:25;16.20;78.40
59505;DHT22;45321;53.200;5.814;2023-09-19T00:47:51;16.20;77.90
59505;DHT22;45321;53.200;5.814;2023-09-19T00:50:19;16.20;77.70
59505;DHT22;45321;53.200;5.814;2023-09-19T00:52:47;16.10;77.40
59505;DHT22;45321;53.200;5.814;2023-09-19T00:55:15;16.10;76.90
59505;DHT22;45321;53.200;5.814;2023-09-19T00:57:42;16.10;77.50
59505;DHT22;45321;53.200;5.814;2023-09-19T01:00:10;16.00;77.80
59505;DHT22;45321;53.200;5.814;2023-09-19T01:02:41;16.00;77.40
59505;DHT22;45321;53.200;5.814;2023-09-19T01:05:11;16.00;76.70
59505;DHT22;45321;53.200;5.814;2023-09-19T01:07:41;16.00;77.00
59505;DHT22;45321;53.200;5.814;2023-09-19T01:10:08;16.00;77.80
59505;DHT22;45321;53.200;5.814;2023-09-19T01:12:44;16.00;78.00
59505;DHT22;45321;53.200;5.814;2023-09-19T01:20:57;15.90;76.70
59505;DHT22;45321;53.200;5.814;2023-09-19T01:26:29;15.90;78.00
59505;DHT22;45321;53.200;5.814;2023-09-19T01:31:28;15.90;78.00
59505;DHT22;45321;53.200;5.814;2023-09-19T01:33:59;15.90;78.10
59505;DHT22;45321;53.200;5.814;2023-09-19T01:36:30;15.90;77.80
59505;DHT22;45321;53.200;5.814;2023-09-19T01:38:57;15.80;78.90
59505;DHT22;45321;53.200;5.814;2023-09-19T01:41:33;15.80;78.40
59505;DHT22;45321;53.200;5.814;2023-09-19T01:44:03;15.80;79.90
59505;DHT22;45321;53.200;5.814;2023-09-19T01:46:35;15.80;78.80
59505;DHT22;45321;53.200;5.814;2023-09-19T01:49:32;15.80;78.40
59505;DHT22;45321;53.200;5.814;2023-09-19T01:55:00;15.80;79.50
59505;DHT22;45321;53.200;5.814;2023-09-19T01:57:34;15.70;79.60
59505;DHT22;45321;53.200;5.814;2023-09-19T02:00:06;15.70;79.50
59505;DHT22;45321;53.200;5.814;2023-09-19T02:02:38;15.70;79.40
59505;DHT22;45321;53.200;5.814;2023-09-19T02:05:05;15.80;78.60
59505;DHT22;45321;53.200;5.814;2023-09-19T02:07:32;15.80;78.40
59505;DHT22;45321;53.200;5.814;2023-09-19T02:09:58;15.70;78.10
59505;DHT22;45321;53.200;5.814;2023-09-19T02:12:29;15.70;77.60
59505;DHT22;45321;53.200;5.814;2023-09-19T02:14:56;15.70;77.20
59505;DHT22;45321;53.200;5.814;2023-09-19T02:17:22;15.70;77.40
59505;DHT22;45321;53.200;5.814;2023-09-19T02:19:52;15.70;77.40
59505;DHT22;45321;53.200;5.814;2023-09-19T02:22:19;15.70;76.40
59505;DHT22;45321;53.200;5.814;2023-09-19T02:24:44;15.70;77.10
59505;DHT22;45321;53.200;5.814;2023-09-19T02:27:13;15.80;76.90
59505;DHT22;45321;53.200;5.814;2023-09-19T02:29:41;15.80;77.30
59505;DHT22;45321;53.200;5.814;2023-09-19T02:32:07;15.80;77.50
59505;DHT22;45321;53.200;5.814;2023-09-19T02:34:35;15.80;78.00
59505;DHT22;45321;53.200;5.814;2023-09-19T02:37:03;15.80;78.50
59505;DHT22;45321;53.200;5.814;2023-09-19T02:39:31;15.70;79.20
59505;DHT22;45321;53.200;5.814;2023-09-19T02:41:57;15.50;79.70
59505;DHT22;45321;53.200;5.814;2023-09-19T02:44:23;15.50;80.40
59505;DHT22;45321;53.200;5.814;2023-09-19T02:46:50;15.30;80.80
59505;DHT22;45321;53.200;5.814;2023-09-19T02:49:16;15.30;81.20
59505;DHT22;45321;53.200;5.814;2023-09-19T02:51:43;15.30;81.60
59505;DHT22;45321;53.200;5.814;2023-09-19T02:54:09;15.30;82.10
59505;DHT22;45321;53.200;5.814;2023-09-19T02:56:36;15.30;82.30
59505;DHT22;45321;53.200;5.814;2023-09-19T02:59:03;15.30;82.30
59505;DHT22;45321;53.200;5.814;2023-09-19T03:01:28;15.30;82.50
59505;DHT22;45321;53.200;5.814;2023-09-19T03:03:55;15.30;81.80
59505;DHT22;45321;53.200;5.814;2023-09-19T03:06:21;15.20;81.10
59505;DHT22;45321;53.200;5.814;2023-09-19T03:08:47;15.20;81.40
59505;DHT22;45321;53.200;5.814;2023-09-19T03:11:15;15.20;81.40
59505;DHT22;45321;53.200;5.814;2023-09-19T03:13:44;15.10;81.50
59505;DHT22;45321;53.200;5.814;2023-09-19T03:16:11;15.20;80.80
59505;DHT22;45321;53.200;5.814;2023-09-19T03:18:37;15.10;80.50
59505;DHT22;45321;53.200;5.814;2023-09-19T03:21:03;15.10;80.50
59505;DHT22;45321;53.200;5.814;2023-09-19T03:23:29;15.10;80.50
59505;DHT22;45321;53.200;5.814;2023-09-19T03:25:55;15.20;80.10
59505;DHT22;45321;53.200;5.814;2023-09-19T03:28:22;15.10;79.70
59505;DHT22;45321;53.200;5.814;2023-09-19T03:31:05;15.10;79.90
59505;DHT22;45321;53.200;5.814;2023-09-19T03:33:31;15.10;79.60
59505;DHT22;45321;53.200;5.814;2023-09-19T03:35:59;15.10;79.70
59505;DHT22;45321;53.200;5.814;2023-09-19T03:38:25;15.20;79.90
59505;DHT22;45321;53.200;5.814;2023-09-19T03:40:51;15.20;80.00
59505;DHT22;45321;53.200;5.814;2023-09-19T03:43:17;15.20;80.20
59505;DHT22;45321;53.200;5.814;2023-09-19T03:45:43;15.20;80.80
59505;DHT22;45321;53.200;5.814;2023-09-19T03:48:09;15.20;80.40
59505;DHT22;45321;53.200;5.814;2023-09-19T03:50:35;15.20;80.60
59505;DHT22;45321;53.200;5.814;2023-09-19T03:53:01;15.30;80.50
59505;DHT22;45321;53.200;5.814;2023-09-19T03:55:27;15.30;80.70
59505;DHT22;45321;53.200;5.814;2023-09-19T03:57:53;15.20;80.90
59505;DHT22;45321;53.200;5.814;2023-09-19T04:00:19;15.30;81.10
59505;DHT22;45321;53.200;5.814;2023-09-19T04:02:48;15.30;80.90
59505;DHT22;45321;53.200;5.814;2023-09-19T04:05:14;15.30;81.10
59505;DHT22;45321;53.200;5.814;2023-09-19T04:07:40;15.30;81.70
59505;DHT22;45321;53.200;5.814;2023-09-19T04:10:05;15.30;81.40
59505;DHT22;45321;53.200;5.814;2023-09-19T04:12:34;15.30;81.50
59505;DHT22;45321;53.200;5.814;2023-09-19T04:15:00;15.30;81.20
59505;DHT22;45321;53.200;5.814;2023-09-19T04:17:25;15.30;80.60
59505;DHT22;45321;53.200;5.814;2023-09-19T04:19:51;15.30;80.90
59505;DHT22;45321;53.200;5.814;2023-09-19T04:22:17;15.30;82.10
59505;DHT22;45321;53.200;5.814;2023-09-19T04:24:43;15.30;80.90
59505;DHT22;45321;53.200;5.814;2023-09-19T04:27:09;15.30;80.90
59505;DHT22;45321;53.200;5.814;2023-09-19T04:29:35;15.30;80.00
59505;DHT22;45321;53.200;5.814;2023-09-19T04:32:04;15.30;79.70
59505;DHT22;45321;53.200;5.814;2023-09-19T04:34:30;15.40;79.40
59505;DHT22;45321;53.200;5.814;2023-09-19T04:36:56;15.40;79.20
59505;DHT22;45321;53.200;5.814;2023-09-19T04:39:24;15.30;78.90
59505;DHT22;45321;53.200;5.814;2023-09-19T04:41:52;15.30;77.90
59505;DHT22;45321;53.200;5.814;2023-09-19T04:44:18;15.40;78.00
59505;DHT22;45321;53.200;5.814;2023-09-19T04:46:44;15.40;78.10
59505;DHT22;45321;53.200;5.814;2023-09-19T04:49:12;15.40;77.40
59505;DHT22;45321;53.200;5.814;2023-09-19T04:51:38;15.30;77.40
59505;DHT22;45321;53.200;5.814;2023-09-19T04:54:05;15.40;77.60
59505;DHT22;45321;53.200;5.814;2023-09-19T04:56:31;15.40;77.30
59505;DHT22;45321;53.200;5.814;2023-09-19T04:58:58;15.40;77.30
59505;DHT22;45321;53.200;5.814;2023-09-19T05:01:24;15.40;77.30
59505;DHT22;45321;53.200;5.814;2023-09-19T05:03:50;15.50;77.50
59505;DHT22;45321;53.200;5.814;2023-09-19T05:06:21;15.50;77.40
59505;DHT22;45321;53.200;5.814;2023-09-19T05:08:48;15.50;77.50
59505;DHT22;45321;53.200;5.814;2023-09-19T05:11:20;15.50;77.40
59505;DHT22;45321;53.200;5.814;2023-09-19T05:13:49;15.50;77.50
59505;DHT22;45321;53.200;5.814;2023-09-19T05:16:16;15.50;77.80
59505;DHT22;45321;53.200;5.814;2023-09-19T05:18:42;15.50;77.80
59505;DHT22;45321;53.200;5.814;2023-09-19T05:21:08;15.50;78.00
59505;DHT22;45321;53.200;5.814;2023-09-19T05:23:34;15.50;78.30
59505;DHT22;45321;53.200;5.814;2023-09-19T05:26:00;15.50;77.60
59505;DHT22;45321;53.200;5.814;2023-09-19T05:28:26;15.50;77.60
59505;DHT22;45321;53.200;5.814;2023-09-19T05:30:52;15.50;78.10
59505;DHT22;45321;53.200;5.814;2023-09-19T05:33:19;15.50;78.40
59505;DHT22;45321;53.200;5.814;2023-09-19T05:35:45;15.50;78.30
59505;DHT22;45321;53.200;5.814;2023-09-19T05:38:12;15.50;78.60
59505;DHT22;45321;53.200;5.814;2023-09-19T05:40:39;15.50;79.00
59505;DHT22;45321;53.200;5.814;2023-09-19T05:43:08;15.50;79.10
59505;DHT22;45321;53.200;5.814;2023-09-19T05:45:34;15.50;79.70
59505;DHT22;45321;53.200;5.814;2023-09-19T05:48:12;15.50;79.80
59505;DHT22;45321;53.200;5.814;2023-09-19T05:50:39;15.60;79.60
59505;DHT22;45321;53.200;5.814;2023-09-19T05:53:05;15.60;79.60
59505;DHT22;45321;53.200;5.814;2023-09-19T05:55:34;15.60;79.20
59505;DHT22;45321;53.200;5.814;2023-09-19T05:58:00;15.60;79.50
59505;DHT22;45321;53.200;5.814;2023-09-19T06:00:29;15.60;79.10
59505;DHT22;45321;53.200;5.814;2023-09-19T06:02:56;15.60;78.70
59505;DHT22;45321;53.200;5.814;2023-09-19T06:05:23;15.60;78.80
59505;DHT22;45321;53.200;5.814;2023-09-19T06:07:49;15.60;78.70
59505;DHT22;45321;53.200;5.814;2023-09-19T06:10:16;15.60;78.80
59505;DHT22;45321;53.200;5.814;2023-09-19T06:12:43;15.60;78.90
59505;DHT22;45321;53.200;5.814;2023-09-19T06:15:13;15.60;78.80
59505;DHT22;45321;53.200;5.814;2023-09-19T06:17:54;15.60;78.40
59505;DHT22;45321;53.200;5.814;2023-09-19T06:20:25;15.60;78.30
59505;DHT22;45321;53.200;5.814;2023-09-19T06:22:52;15.60;78.40
59505;DHT22;45321;53.200;5.814;2023-09-19T06:25:18;15.70;78.20
59505;DHT22;45321;53.200;5.814;2023-09-19T06:27:51;15.70;79.00
59505;DHT22;45321;53.200;5.814;2023-09-19T06:30:20;15.70;78.60
59505;DHT22;45321;53.200;5.814;2023-09-19T06:32:46;15.70;78.10
59505;DHT22;45321;53.200;5.814;2023-09-19T06:35:15;15.70;77.70
59505;DHT22;45321;53.200;5.814;2023-09-19T06:37:42;15.70;77.20
59505;DHT22;45321;53.200;5.814;2023-09-19T06:40:10;15.70;77.50
59505;DHT22;45321;53.200;5.814;2023-09-19T06:42:51;15.70;77.20
59505;DHT22;45321;53.200;5.814;2023-09-19T06:45:18;15.80;77.70
59505;DHT22;45321;53.200;5.814;2023-09-19T06:47:48;15.80;78.50
59505;DHT22;45321;53.200;5.814;2023-09-19T06:50:21;15.80;77.20
59505;DHT22;45321;53.200;5.814;2023-09-19T06:52:49;15.80;77.10
59505;DHT22;45321;53.200;5.814;2023-09-19T06:55:20;15.80;77.50
59505;DHT22;45321;53.200;5.814;2023-09-19T06:57:47;15.80;77.10
59505;DHT22;45321;53.200;5.814;2023-09-19T07:00:13;15.80;76.00
59505;DHT22;45321;53.200;5.814;2023-09-19T07:03:02;15.90;75.80
59505;DHT22;45321;53.200;5.814;2023-09-19T07:05:32;15.90;75.80
59505;DHT22;45321;53.200;5.814;2023-09-19T07:08:02;15.90;75.70
59505;DHT22;45321;53.200;5.814;2023-09-19T07:10:28;16.00;76.30
59505;DHT22;45321;53.200;5.814;2023-09-19T07:13:05;16.00;75.10
59505;DHT22;45321;53.200;5.814;2023-09-19T07:15:37;16.00;75.90
59505;DHT22;45321;53.200;5.814;2023-09-19T07:18:06;16.00;76.20
59505;DHT22;45321;53.200;5.814;2023-09-19T07:20:32;16.00;76.30
59505;DHT22;45321;53.200;5.814;2023-09-19T07:22:58;16.00;75.90
59505;DHT22;45321;53.200;5.814;2023-09-19T07:25:28;16.00;74.90
59505;DHT22;45321;53.200;5.814;2023-09-19T07:28:03;16.00;75.40
59505;DHT22;45321;53.200;5.814;2023-09-19T07:30:28;16.10;76.10
59505;DHT22;45321;53.200;5.814;2023-09-19T07:32:54;16.10;74.90
59505;DHT22;45321;53.200;5.814;2023-09-19T07:35:20;16.20;76.20
59505;DHT22;45321;53.200;5.814;2023-09-19T07:37:47;16.30;75.80
59505;DHT22;45321;53.200;5.814;2023-09-19T07:40:15;16.40;75.90
59505;DHT22;45321;53.200;5.814;2023-09-19T07:42:42;16.50;75.90
59505;DHT22;45321;53.200;5.814;2023-09-19T07:45:10;16.60;75.80
59505;DHT22;45321;53.200;5.814;2023-09-19T07:47:50;16.70;75.40
59505;DHT22;45321;53.200;5.814;2023-09-19T07:50:17;16.80;75.70
59505;DHT22;45321;53.200;5.814;2023-09-19T07:52:45;16.80;76.10
59505;DHT22;45321;53.200;5.814;2023-09-19T07:55:11;16.80;75.20
59505;DHT22;45321;53.200;5.814;2023-09-19T07:57:37;16.90;75.10
59505;DHT22;45321;53.200;5.814;2023-09-19T08:00:04;16.90;74.80
59505;DHT22;45321;53.200;5.814;2023-09-19T08:02:43;16.90;74.60
59505;DHT22;45321;53.200;5.814;2023-09-19T08:05:12;16.90;73.90
59505;DHT22;45321;53.200;5.814;2023-09-19T08:07:42;17.00;74.00
59505;DHT22;45321;53.200;5.814;2023-09-19T08:10:09;17.10;74.30
59505;DHT22;45321;53.200;5.814;2023-09-19T08:12:43;17.20;74.10
59505;DHT22;45321;53.200;5.814;2023-09-19T08:15:16;17.20;74.20
59505;DHT22;45321;53.200;5.814;2023-09-19T08:17:42;17.20;74.00
59505;DHT22;45321;53.200;5.814;2023-09-19T08:20:10;17.20;74.40
59505;DHT22;45321;53.200;5.814;2023-09-19T08:22:52;17.30;74.10
59505;DHT22;45321;53.200;5.814;2023-09-19T08:25:20;17.20;74.30
59505;DHT22;45321;53.200;5.814;2023-09-19T08:27:48;17.30;73.20
59505;DHT22;45321;53.200;5.814;2023-09-19T08:30:20;17.20;73.80
59505;DHT22;45321;53.200;5.814;2023-09-19T08:32:50;17.30;73.60
59505;DHT22;45321;53.200;5.814;2023-09-19T08:35:15;17.30;72.10
59505;DHT22;45321;53.200;5.814;2023-09-19T08:37:44;17.30;72.50
59505;DHT22;45321;53.200;5.814;2023-09-19T08:40:12;17.30;71.50
59505;DHT22;45321;53.200;5.814;2023-09-19T08:42:55;17.40;72.60
59505;DHT22;45321;53.200;5.814;2023-09-19T08:45:25;17.40;72.60
59505;DHT22;45321;53.200;5.814;2023-09-19T08:53:42;17.60;70.90
59505;DHT22;45321;53.200;5.814;2023-09-19T08:56:13;17.70;71.40
59505;DHT22;45321;53.200;5.814;2023-09-19T08:58:48;17.70;71.20
59505;DHT22;45321;53.200;5.814;2023-09-19T09:01:17;17.70;71.20
59505;DHT22;45321;53.200;5.814;2023-09-19T09:03:53;17.80;71.60
59505;DHT22;45321;53.200;5.814;2023-09-19T09:06:23;17.80;71.40
59505;DHT22;45321;53.200;5.814;2023-09-19T09:08:52;17.80;71.20
59505;DHT22;45321;53.200;5.814;2023-09-19T09:11:19;17.90;70.80
59505;DHT22;45321;53.200;5.814;2023-09-19T09:13:45;17.90;71.30
59505;DHT22;45321;53.200;5.814;2023-09-19T09:16:11;17.90;69.80
59505;DHT22;45321;53.200;5.814;2023-09-19T09:18:38;18.00;69.10
59505;DHT22;45321;53.200;5.814;2023-09-19T09:21:04;18.00;69.70
59505;DHT22;45321;53.200;5.814;2023-09-19T09:23:30;18.00;69.60
59505;DHT22;45321;53.200;5.814;2023-09-19T09:26:00;18.10;69.50
59505;DHT22;45321;53.200;5.814;2023-09-19T09:28:32;18.20;69.40
59505;DHT22;45321;53.200;5.814;2023-09-19T09:31:00;18.20;69.90
59505;DHT22;45321;53.200;5.814;2023-09-19T09:33:33;18.30;69.80
59505;DHT22;45321;53.200;5.814;2023-09-19T09:36:01;18.30;69.40
59505;DHT22;45321;53.200;5.814;2023-09-19T09:38:30;18.40;70.40
59505;DHT22;45321;53.200;5.814;2023-09-19T09:41:09;18.50;70.60
59505;DHT22;45321;53.200;5.814;2023-09-19T09:43:39;18.50;70.30
59505;DHT22;45321;53.200;5.814;2023-09-19T09:46:09;18.50;70.70
59505;DHT22;45321;53.200;5.814;2023-09-19T09:49:03;18.50;71.00
59505;DHT22;45321;53.200;5.814;2023-09-19T09:51:38;18.50;69.50
59505;DHT22;45321;53.200;5.814;2023-09-19T09:54:15;18.50;70.50
59505;DHT22;45321;53.200;5.814;2023-09-19T09:59:18;18.60;70.80
59505;DHT22;45321;53.200;5.814;2023-09-19T10:01:48;18.50;70.60
59505;DHT22;45321;53.200;5.814;2023-09-19T10:04:27;18.50;70.60
59505;DHT22;45321;53.200;5.814;2023-09-19T10:07:02;18.50;69.60
59505;DHT22;45321;53.200;5.814;2023-09-19T10:09:45;18.60;70.70
59505;DHT22;45321;53.200;5.814;2023-09-19T10:12:12;18.60;70.40
59505;DHT22;45321;53.200;5.814;2023-09-19T10:14:41;18.70;69.70
59505;DHT22;45321;53.200;5.814;2023-09-19T10:17:10;18.70;70.30
59505;DHT22;45321;53.200;5.814;2023-09-19T10:19:42;18.70;69.70
59505;DHT22;45321;53.200;5.814;2023-09-19T10:22:14;18.80;69.70
59505;DHT22;45321;53.200;5.814;2023-09-19T10:24:48;18.70;69.90
59505;DHT22;45321;53.200;5.814;2023-09-19T10:27:18;18.70;71.00
59505;DHT22;45321;53.200;5.814;2023-09-19T10:29:45;18.80;71.70
59505;DHT22;45321;53.200;5.814;2023-09-19T10:32:16;18.80;72.90
59505;DHT22;45321;53.200;5.814;2023-09-19T10:34:47;18.80;73.20
59505;DHT22;45321;53.200;5.814;2023-09-19T10:37:13;18.70;73.00
59505;DHT22;45321;53.200;5.814;2023-09-19T10:39:44;18.70;73.40
59505;DHT22;45321;53.200;5.814;2023-09-19T10:42:14;18.60;73.50
59505;DHT22;45321;53.200;5.814;2023-09-19T10:44:43;18.60;73.90
59505;DHT22;45321;53.200;5.814;2023-09-19T10:47:10;18.50;74.00
59505;DHT22;45321;53.200;5.814;2023-09-19T10:49:46;18.40;74.20
59505;DHT22;45321;53.200;5.814;2023-09-19T10:52:14;18.40;74.80
59505;DHT22;45321;53.200;5.814;2023-09-19T10:54:47;18.40;75.00
59505;DHT22;45321;53.200;5.814;2023-09-19T10:57:24;18.30;75.30
59505;DHT22;45321;53.200;5.814;2023-09-19T11:00:08;18.30;75.20
59505;DHT22;45321;53.200;5.814;2023-09-19T11:05:38;18.50;75.80
59505;DHT22;45321;53.200;5.814;2023-09-19T11:08:09;18.60;75.00
59505;DHT22;45321;53.200;5.814;2023-09-19T11:10:48;18.60;74.90
59505;DHT22;45321;53.200;5.814;2023-09-19T11:13:28;18.60;75.00
59505;DHT22;45321;53.200;5.814;2023-09-19T11:26:50;18.40;75.70
59505;DHT22;45321;53.200;5.814;2023-09-19T11:29:30;18.30;76.20
59505;DHT22;45321;53.200;5.814;2023-09-19T11:31:57;18.30;76.30
59505;DHT22;45321;53.200;5.814;2023-09-19T11:39:37;18.20;76.00
59505;DHT22;45321;53.200;5.814;2023-09-19T11:42:41;18.20;77.00
59505;DHT22;45321;53.200;5.814;2023-09-19T11:45:07;18.20;78.60
59505;DHT22;45321;53.200;5.814;2023-09-19T11:47:33;18.10;78.60
59505;DHT22;45321;53.200;5.814;2023-09-19T11:50:01;18.00;78.90
59505;DHT22;45321;53.200;5.814;2023-09-19T11:52:28;17.90;79.60
59505;DHT22;45321;53.200;5.814;2023-09-19T11:55:01;17.80;80.90
59505;DHT22;45321;53.200;5.814;2023-09-19T11:57:28;17.70;82.20
59505;DHT22;45321;53.200;5.814;2023-09-19T11:59:55;17.70;82.30
59505;DHT22;45321;53.200;5.814;2023-09-19T12:02:39;17.60;82.80
59505;DHT22;45321;53.200;5.814;2023-09-19T12:05:08;17.60;83.30
59505;DHT22;45321;53.200;5.814;2023-09-19T12:07:42;17.60;83.50
59505;DHT22;45321;53.200;5.814;2023-09-19T12:10:11;17.60;83.70
59505;DHT22;45321;53.200;5.814;2023-09-19T12:12:38;17.60;83.80
59505;DHT22;45321;53.200;5.814;2023-09-19T12:15:04;17.70;84.20
59505;DHT22;45321;53.200;5.814;2023-09-19T12:17:38;17.80;84.10
59505;DHT22;45321;53.200;5.814;2023-09-19T12:20:08;17.80;83.60
59505;DHT22;45321;53.200;5.814;2023-09-19T12:22:46;17.80;83.70
59505;DHT22;45321;53.200;5.814;2023-09-19T12:25:15;17.80;83.20
59505;DHT22;45321;53.200;5.814;2023-09-19T12:27:46;17.80;83.30
59505;DHT22;45321;53.200;5.814;2023-09-19T12:30:13;17.80;83.00
59505;DHT22;45321;53.200;5.814;2023-09-19T12:32:43;17.90;82.70
59505;DHT22;45321;53.200;5.814;2023-09-19T12:35:10;17.90;82.60
59505;DHT22;45321;53.200;5.814;2023-09-19T12:37:51;17.90;82.30
59505;DHT22;45321;53.200;5.814;2023-09-19T12:40:22;17.90;82.20
59505;DHT22;45321;53.200;5.814;2023-09-19T12:42:53;17.90;83.10
59505;DHT22;45321;53.200;5.814;2023-09-19T12:45:20;17.80;82.80
59505;DHT22;45321;53.200;5.814;2023-09-19T12:48:21;17.80;82.70
59505;DHT22;45321;53.200;5.814;2023-09-19T12:53:32;17.80;83.20
59505;DHT22;45321;53.200;5.814;2023-09-19T12:56:00;17.80;83.50
59505;DHT22;45321;53.200;5.814;2023-09-19T12:58:26;17.70;84.20
59505;DHT22;45321;53.200;5.814;2023-09-19T13:00:52;17.70;84.40
59505;DHT22;45321;53.200;5.814;2023-09-19T13:05:56;17.70;84.20
59505;DHT22;45321;53.200;5.814;2023-09-19T13:08:33;17.70;84.80
59505;DHT22;45321;53.200;5.814;2023-09-19T13:11:13;17.70;84.80
59505;DHT22;45321;53.200;5.814;2023-09-19T13:16:16;17.70;84.50
59505;DHT22;45321;53.200;5.814;2023-09-19T13:18:55;17.70;84.20
59505;DHT22;45321;53.200;5.814;2023-09-19T13:21:33;17.70;84.60
59505;DHT22;45321;53.200;5.814;2023-09-19T13:24:22;17.80;84.50
59505;DHT22;45321;53.200;5.814;2023-09-19T13:26:51;17.80;84.20
59505;DHT22;45321;53.200;5.814;2023-09-19T13:29:17;17.80;84.30
59505;DHT22;45321;53.200;5.814;2023-09-19T13:32:02;17.90;84.30
59505;DHT22;45321;53.200;5.814;2023-09-19T13:34:27;17.90;84.40
59505;DHT22;45321;53.200;5.814;2023-09-19T13:36:55;18.00;84.30
59505;DHT22;45321;53.200;5.814;2023-09-19T13:39:20;18.00;83.80
59505;DHT22;45321;53.200;5.814;2023-09-19T13:41:47;18.00;83.90
59505;DHT22;45321;53.200;5.814;2023-09-19T13:44:14;18.00;83.70
59505;DHT22;45321;53.200;5.814;2023-09-19T13:46:39;18.00;83.70
59505;DHT22;45321;53.200;5.814;2023-09-19T13:49:06;17.90;84.10
59505;DHT22;45321;53.200;5.814;2023-09-19T13:51:32;17.90;84.10
59505;DHT22;45321;53.200;5.814;2023-09-19T13:53:58;18.00;83.80
59505;DHT22;45321;53.200;5.814;2023-09-19T13:56:25;18.00;83.70
59505;DHT22;45321;53.200;5.814;2023-09-19T13:58:53;18.00;83.50
59505;DHT22;45321;53.200;5.814;2023-09-19T14:01:20;18.00;83.30
59505;DHT22;45321;53.200;5.814;2023-09-19T14:03:45;18.00;83.50
59505;DHT22;45321;53.200;5.814;2023-09-19T14:06:16;18.00;83.70
59505;DHT22;45321;53.200;5.814;2023-09-19T14:08:42;18.00;84.50
59505;DHT22;45321;53.200;5.814;2023-09-19T14:11:08;17.90;85.10
59505;DHT22;45321;53.200;5.814;2023-09-19T14:13:34;17.90;85.60
59505;DHT22;45321;53.200;5.814;2023-09-19T14:16:04;17.80;85.90
59505;DHT22;45321;53.200;5.814;2023-09-19T14:18:31;17.80;85.60
59505;DHT22;45321;53.200;5.814;2023-09-19T14:20:56;17.80;85.50
59505;DHT22;45321;53.200;5.814;2023-09-19T14:23:22;17.80;85.40
59505;DHT22;45321;53.200;5.814;2023-09-19T14:25:51;17.80;85.10
59505;DHT22;45321;53.200;5.814;2023-09-19T14:28:19;17.80;85.20
59505;DHT22;45321;53.200;5.814;2023-09-19T14:30:45;17.80;84.90
59505;DHT22;45321;53.200;5.814;2023-09-19T14:33:11;17.80;85.10
59505;DHT22;45321;53.200;5.814;2023-09-19T14:35:37;17.80;85.40
59505;DHT22;45321;53.200;5.814;2023-09-19T14:38:04;17.80;85.00
59505;DHT22;45321;53.200;5.814;2023-09-19T14:40:29;17.80;84.70
59505;DHT22;45321;53.200;5.814;2023-09-19T14:42:56;17.80;84.70
59505;DHT22;45321;53.200;5.814;2023-09-19T14:45:22;17.80;84.80
59505;DHT22;45321;53.200;5.814;2023-09-19T14:47:48;17.80;85.00
59505;DHT22;45321;53.200;5.814;2023-09-19T14:50:14;17.80;85.00
59505;DHT22;45321;53.200;5.814;2023-09-19T14:52:41;17.90;84.80
59505;DHT22;45321;53.200;5.814;2023-09-19T14:55:07;17.90;84.50
59505;DHT22;45321;53.200;5.814;2023-09-19T14:57:40;17.90;84.50
59505;DHT22;45321;53.200;5.814;2023-09-19T15:00:06;17.90;84.30
59505;DHT22;45321;53.200;5.814;2023-09-19T15:02:40;17.90;84.50
59505;DHT22;45321;53.200;5.814;2023-09-19T15:05:06;18.00;84.40
59505;DHT22;45321;53.200;5.814;2023-09-19T15:07:35;18.00;84.40
59505;DHT22;45321;53.200;5.814;2023-09-19T15:10:03;18.00;84.60
59505;DHT22;45321;53.200;5.814;2023-09-19T15:12:29;18.00;84.70
59505;DHT22;45321;53.200;5.814;2023-09-19T15:14:54;18.00;84.50
59505;DHT22;45321;53.200;5.814;2023-09-19T15:17:20;18.10;84.30
59505;DHT22;45321;53.200;5.814;2023-09-19T15:19:46;18.00;84.40
59505;DHT22;45321;53.200;5.814;2023-09-19T15:22:12;18.00;84.40
59505;DHT22;45321;53.200;5.814;2023-09-19T15:24:38;18.00;84.40
59505;DHT22;45321;53.200;5.814;2023-09-19T15:27:04;18.00;84.60
59505;DHT22;45321;53.200;5.814;2023-09-19T15:29:30;18.00;84.50
59505;DHT22;45321;53.200;5.814;2023-09-19T15:31:56;18.10;84.70
59505;DHT22;45321;53.200;5.814;2023-09-19T15:34:27;18.10;84.90
59505;DHT22;45321;53.200;5.814;2023-09-19T15:36:54;18.00;84.90
59505;DHT22;45321;53.200;5.814;2023-09-19T15:39:19;18.10;85.10
59505;DHT22;45321;53.200;5.814;2023-09-19T15:41:48;18.10;85.30
59505;DHT22;45321;53.200;5.814;2023-09-19T15:44:18;18.10;85.40
59505;DHT22;45321;53.200;5.814;2023-09-19T15:46:44;18.00;85.40
59505;DHT22;45321;53.200;5.814;2023-09-19T15:49:10;18.00;85.90
59505;DHT22;45321;53.200;5.814;2023-09-19T15:51:37;18.00;86.00
59505;DHT22;45321;53.200;5.814;2023-09-19T15:54:23;18.00;85.70
59505;DHT22;45321;53.200;5.814;2023-09-19T15:56:50;17.90;86.60
59505;DHT22;45321;53.200;5.814;2023-09-19T15:59:17;18.00;86.30
59505;DHT22;45321;53.200;5.814;2023-09-19T16:01:43;17.90;86.80
59505;DHT22;45321;53.200;5.814;2023-09-19T16:04:10;17.90;87.10
59505;DHT22;45321;53.200;5.814;2023-09-19T16:06:36;17.80;86.90
59505;DHT22;45321;53.200;5.814;2023-09-19T16:09:03;17.80;87.10
59505;DHT22;45321;53.200;5.814;2023-09-19T16:11:32;17.80;87.30
59505;DHT22;45321;53.200;5.814;2023-09-19T16:13:58;17.80;87.50
59505;DHT22;45321;53.200;5.814;2023-09-19T16:16:26;17.80;88.50
59505;DHT22;45321;53.200;5.814;2023-09-19T16:19:02;17.70;88.40
59505;DHT22;45321;53.200;5.814;2023-09-19T16:21:32;17.70;88.20
59505;DHT22;45321;53.200;5.814;2023-09-19T16:24:00;17.70;88.20
59505;DHT22;45321;53.200;5.814;2023-09-19T16:26:26;17.60;88.60
59505;DHT22;45321;53.200;5.814;2023-09-19T16:28:55;17.70;88.60
59505;DHT22;45321;53.200;5.814;2023-09-19T16:31:26;17.60;88.80